Angoon, AK (99820)

6:12 PM AKDT on August 27, 2014 (GMT -0800)
Angoon | Change Station
CLOSE
Current Station
Airport
Location: Angoon,
Elevation: 0 ft
Nearby Weather Stations

Elev 0 ft 57.50 °N, 134.59 °W | Updated 16 minutes ago

Mostly Cloudy
Mostly Cloudy
56 °F
Feels Like 56 °F
N
0
Wind Variable Wind from North

Today
High -- | Low -- °F
--% Chance of Precip.
Yesterday
High -- | Low -- °F
Precip. -- in
5:49 AM 8:08 PM
Waxing Crescent, 6% visible
Pressure 30.09 in
Visibility 10.0 miles
Clouds Mostly Cloudy 5000 ft
Mostly Cloudy 6500 ft
Dew Point 52 °F
Humidity 87%
Rainfall 0.00 in
Snow Depth Not available.
UV 1 out of 12
Pollen Not available.
Air Quality Not available.
Flu Activity Not available.
METAR PAGN 280156Z AUTO 00000KT 10SM BKN050 BKN065 13/11 A3009 RMK AO2 TSNO T01330111 BKN V OVC SLP190 $

More Conditions Fewer Conditions

Pressure 30.09 in
Visibility 10.0 miles
Clouds Mostly Cloudy 5000 ft
Mostly Cloudy 6500 ft
Dew Point 52 °F
Humidity 87%
Rainfall 0.00 in
Snow Depth Not available.
UV 1 out of 12
Pollen Not available.
Air Quality Not available.
Flu Activity Not available.
METAR PAGN 280156Z AUTO 00000KT 10SM BKN050 BKN065 13/11 A3009 RMK AO2 TSNO T01330111 BKN V OVC SLP190 $

More Conditions Fewer Conditions

10-Day Weather Forecast

Almanac

Astronomy

Aug. 27, 2014 Rise Set
Actual Time 5:49 AM AKDT 8:08 PM AKDT
Civil Twilight 5:06 AM AKDT 8:51 PM AKDT
Nautical Twilight 4:11 AM AKDT 9:45 PM AKDT
Astronomical Twilight 3:02 AM AKDT 10:53 PM AKDT
Moon 8:27 AM AKDT (8/27) 8:25 PM AKDT (8/27)
Length of Visible Light 15h 44m
Length of Day
14h 19m
Tomorrow will be 4m 48s shorter.
Waxing Crescent, 6% of the Moon is Illuminated
Today
Waxing Crescent
Sep 2
First Quarter
Sep 8
Full
Sep 15
Last Quarter
Sep 24
New

Today's Extremes

State Highs State Lows

Community

WunderPhotos

Upload Photos

1,747,870 photos uploaded!

Nearby

Snow Depth

Station Depth Elevation
Long Lake 0 in 820 ft
Upper Tsaina River 0 in 1750 ft
Moraine 0 in 2100 ft
Grandview 12 in 1100 ft
Grouse Creek Divide 0 in 700 ft

Earthquake Activity

City Distance Mag. Time & Date
No recent earthquake activity has been reported nearby.
Minimum magnitude displayed is 2.5.

Coastal Water Temperatures

Place Temperature
No Stations Reporting

Nearby Weather Stations